sensor_id;sensor_type;location;lat;lon;timestamp;P1;durP1;ratioP1;P2;durP2;ratioP2
6566;SDS011;3317;43.994;22.878;2023-06-10T00:01:42;5.13;;;3.90;;
6566;SDS011;3317;43.994;22.878;2023-06-10T00:04:12;5.53;;;4.90;;
6566;SDS011;3317;43.994;22.878;2023-06-10T00:06:41;6.60;;;4.10;;
6566;SDS011;3317;43.994;22.878;2023-06-10T00:09:08;5.67;;;4.30;;
6566;SDS011;3317;43.994;22.878;2023-06-10T00:11:36;10.50;;;4.80;;
6566;SDS011;3317;43.994;22.878;2023-06-10T00:14:04;5.60;;;4.33;;
6566;SDS011;3317;43.994;22.878;2023-06-10T00:16:31;5.80;;;4.10;;
6566;SDS011;3317;43.994;22.878;2023-06-10T00:18:58;6.53;;;4.63;;
6566;SDS011;3317;43.994;22.878;2023-06-10T00:21:26;8.57;;;4.80;;
6566;SDS011;3317;43.994;22.878;2023-06-10T00:23:55;4.90;;;4.20;;
6566;SDS011;3317;43.994;22.878;2023-06-10T00:26:22;6.67;;;4.20;;
6566;SDS011;3317;43.994;22.878;2023-06-10T00:28:51;10.10;;;5.10;;
6566;SDS011;3317;43.994;22.878;2023-06-10T00:31:18;4.73;;;4.17;;
6566;SDS011;3317;43.994;22.878;2023-06-10T00:33:45;6.03;;;4.40;;
6566;SDS011;3317;43.994;22.878;2023-06-10T00:36:12;7.93;;;5.50;;
6566;SDS011;3317;43.994;22.878;2023-06-10T00:38:40;7.07;;;5.10;;
6566;SDS011;3317;43.994;22.878;2023-06-10T00:41:09;6.57;;;4.67;;
6566;SDS011;3317;43.994;22.878;2023-06-10T00:43:36;8.07;;;4.70;;
6566;SDS011;3317;43.994;22.878;2023-06-10T00:46:03;8.20;;;5.13;;
6566;SDS011;3317;43.994;22.878;2023-06-10T00:48:30;5.30;;;4.10;;
6566;SDS011;3317;43.994;22.878;2023-06-10T00:50:57;5.63;;;5.03;;
6566;SDS011;3317;43.994;22.878;2023-06-10T00:53:26;10.30;;;4.67;;
6566;SDS011;3317;43.994;22.878;2023-06-10T00:55:54;6.33;;;4.40;;
6566;SDS011;3317;43.994;22.878;2023-06-10T00:58:22;6.07;;;4.90;;
6566;SDS011;3317;43.994;22.878;2023-06-10T01:00:50;6.90;;;4.57;;
6566;SDS011;3317;43.994;22.878;2023-06-10T01:03:18;21.43;;;6.37;;
6566;SDS011;3317;43.994;22.878;2023-06-10T01:05:46;9.10;;;5.93;;
6566;SDS011;3317;43.994;22.878;2023-06-10T01:08:23;8.23;;;5.93;;
6566;SDS011;3317;43.994;22.878;2023-06-10T01:11:00;8.87;;;5.07;;
6566;SDS011;3317;43.994;22.878;2023-06-10T01:13:31;5.30;;;4.80;;
6566;SDS011;3317;43.994;22.878;2023-06-10T01:16:02;9.57;;;5.53;;
6566;SDS011;3317;43.994;22.878;2023-06-10T01:18:30;8.57;;;5.10;;
6566;SDS011;3317;43.994;22.878;2023-06-10T01:20:57;8.43;;;5.87;;
6566;SDS011;3317;43.994;22.878;2023-06-10T01:23:26;8.87;;;5.93;;
6566;SDS011;3317;43.994;22.878;2023-06-10T01:25:59;7.53;;;5.30;;
6566;SDS011;3317;43.994;22.878;2023-06-10T01:28:30;5.47;;;4.97;;
6566;SDS011;3317;43.994;22.878;2023-06-10T01:31:03;5.20;;;4.20;;
6566;SDS011;3317;43.994;22.878;2023-06-10T01:33:37;8.00;;;5.30;;
6566;SDS011;3317;43.994;22.878;2023-06-10T01:36:08;7.60;;;5.20;;
6566;SDS011;3317;43.994;22.878;2023-06-10T01:38:39;14.43;;;6.33;;
6566;SDS011;3317;43.994;22.878;2023-06-10T01:41:08;9.20;;;4.90;;
6566;SDS011;3317;43.994;22.878;2023-06-10T01:43:37;6.67;;;5.60;;
6566;SDS011;3317;43.994;22.878;2023-06-10T01:46:04;8.50;;;6.13;;
6566;SDS011;3317;43.994;22.878;2023-06-10T01:48:31;6.40;;;5.13;;
6566;SDS011;3317;43.994;22.878;2023-06-10T01:50:58;8.20;;;5.33;;
6566;SDS011;3317;43.994;22.878;2023-06-10T01:53:25;8.37;;;4.97;;
6566;SDS011;3317;43.994;22.878;2023-06-10T01:55:54;6.83;;;5.30;;
6566;SDS011;3317;43.994;22.878;2023-06-10T01:58:21;13.43;;;5.83;;
6566;SDS011;3317;43.994;22.878;2023-06-10T02:00:48;6.50;;;4.90;;
6566;SDS011;3317;43.994;22.878;2023-06-10T02:03:15;7.77;;;5.50;;
6566;SDS011;3317;43.994;22.878;2023-06-10T02:05:43;5.60;;;5.10;;
6566;SDS011;3317;43.994;22.878;2023-06-10T02:08:10;9.37;;;5.00;;
6566;SDS011;3317;43.994;22.878;2023-06-10T02:10:37;10.50;;;5.13;;
6566;SDS011;3317;43.994;22.878;2023-06-10T02:13:05;10.97;;;5.20;;
6566;SDS011;3317;43.994;22.878;2023-06-10T02:15:32;11.70;;;5.67;;
6566;SDS011;3317;43.994;22.878;2023-06-10T02:18:00;8.70;;;5.07;;
6566;SDS011;3317;43.994;22.878;2023-06-10T02:20:27;9.10;;;4.20;;
6566;SDS011;3317;43.994;22.878;2023-06-10T02:22:54;6.70;;;4.80;;
6566;SDS011;3317;43.994;22.878;2023-06-10T02:25:21;10.83;;;4.90;;
6566;SDS011;3317;43.994;22.878;2023-06-10T02:27:48;7.50;;;4.67;;
6566;SDS011;3317;43.994;22.878;2023-06-10T02:30:17;6.73;;;4.50;;
6566;SDS011;3317;43.994;22.878;2023-06-10T02:32:44;8.60;;;4.53;;
6566;SDS011;3317;43.994;22.878;2023-06-10T02:35:13;7.90;;;4.20;;
6566;SDS011;3317;43.994;22.878;2023-06-10T02:37:40;8.60;;;4.40;;
6566;SDS011;3317;43.994;22.878;2023-06-10T02:40:07;8.20;;;4.47;;
6566;SDS011;3317;43.994;22.878;2023-06-10T02:42:35;8.20;;;5.23;;
6566;SDS011;3317;43.994;22.878;2023-06-10T02:45:03;7.80;;;4.57;;
6566;SDS011;3317;43.994;22.878;2023-06-10T02:47:32;8.13;;;4.40;;
6566;SDS011;3317;43.994;22.878;2023-06-10T02:49:59;7.03;;;4.60;;
6566;SDS011;3317;43.994;22.878;2023-06-10T02:52:26;6.97;;;4.33;;
6566;SDS011;3317;43.994;22.878;2023-06-10T02:54:53;10.50;;;5.07;;
6566;SDS011;3317;43.994;22.878;2023-06-10T02:57:20;9.63;;;4.60;;
6566;SDS011;3317;43.994;22.878;2023-06-10T02:59:47;7.13;;;4.00;;
6566;SDS011;3317;43.994;22.878;2023-06-10T03:02:14;11.10;;;4.47;;
6566;SDS011;3317;43.994;22.878;2023-06-10T03:04:43;8.73;;;4.83;;
6566;SDS011;3317;43.994;22.878;2023-06-10T03:07:10;8.70;;;4.67;;
6566;SDS011;3317;43.994;22.878;2023-06-10T03:09:37;8.37;;;5.37;;
6566;SDS011;3317;43.994;22.878;2023-06-10T03:12:05;6.60;;;4.40;;
6566;SDS011;3317;43.994;22.878;2023-06-10T03:14:33;6.30;;;4.70;;
6566;SDS011;3317;43.994;22.878;2023-06-10T03:17:00;10.77;;;5.03;;
6566;SDS011;3317;43.994;22.878;2023-06-10T03:19:28;7.10;;;4.73;;
6566;SDS011;3317;43.994;22.878;2023-06-10T03:22:06;11.23;;;5.73;;
6566;SDS011;3317;43.994;22.878;2023-06-10T03:24:35;7.13;;;5.10;;
6566;SDS011;3317;43.994;22.878;2023-06-10T03:27:05;11.10;;;5.53;;
6566;SDS011;3317;43.994;22.878;2023-06-10T03:29:33;9.53;;;4.90;;
6566;SDS011;3317;43.994;22.878;2023-06-10T03:32:00;7.60;;;4.43;;
6566;SDS011;3317;43.994;22.878;2023-06-10T03:34:27;6.97;;;4.77;;
6566;SDS011;3317;43.994;22.878;2023-06-10T03:36:55;7.00;;;5.10;;
6566;SDS011;3317;43.994;22.878;2023-06-10T03:39:23;10.63;;;5.40;;
6566;SDS011;3317;43.994;22.878;2023-06-10T03:41:50;9.10;;;4.93;;
6566;SDS011;3317;43.994;22.878;2023-06-10T03:44:17;9.70;;;5.27;;
6566;SDS011;3317;43.994;22.878;2023-06-10T03:46:44;7.23;;;5.50;;
6566;SDS011;3317;43.994;22.878;2023-06-10T03:49:12;7.47;;;5.43;;
6566;SDS011;3317;43.994;22.878;2023-06-10T03:51:40;7.70;;;4.80;;
6566;SDS011;3317;43.994;22.878;2023-06-10T03:54:07;10.23;;;5.77;;
6566;SDS011;3317;43.994;22.878;2023-06-10T03:56:35;7.30;;;4.80;;
6566;SDS011;3317;43.994;22.878;2023-06-10T03:59:02;6.07;;;5.13;;
6566;SDS011;3317;43.994;22.878;2023-06-10T04:01:30;12.47;;;5.60;;
6566;SDS011;3317;43.994;22.878;2023-06-10T04:03:58;11.47;;;5.40;;
6566;SDS011;3317;43.994;22.878;2023-06-10T04:06:26;9.67;;;5.53;;
6566;SDS011;3317;43.994;22.878;2023-06-10T04:08:54;10.13;;;5.60;;
6566;SDS011;3317;43.994;22.878;2023-06-10T04:11:22;7.30;;;4.70;;
6566;SDS011;3317;43.994;22.878;2023-06-10T04:13:51;12.30;;;5.10;;
6566;SDS011;3317;43.994;22.878;2023-06-10T04:16:18;9.23;;;6.27;;
6566;SDS011;3317;43.994;22.878;2023-06-10T04:18:46;12.70;;;5.60;;
6566;SDS011;3317;43.994;22.878;2023-06-10T04:21:13;6.20;;;5.13;;
6566;SDS011;3317;43.994;22.878;2023-06-10T04:23:40;12.87;;;6.00;;
6566;SDS011;3317;43.994;22.878;2023-06-10T04:26:07;7.30;;;4.50;;
6566;SDS011;3317;43.994;22.878;2023-06-10T04:28:36;10.63;;;4.43;;
6566;SDS011;3317;43.994;22.878;2023-06-10T04:31:04;6.80;;;4.90;;
6566;SDS011;3317;43.994;22.878;2023-06-10T04:33:31;8.87;;;4.77;;
6566;SDS011;3317;43.994;22.878;2023-06-10T04:35:58;10.43;;;4.40;;
6566;SDS011;3317;43.994;22.878;2023-06-10T04:38:26;8.47;;;4.80;;
6566;SDS011;3317;43.994;22.878;2023-06-10T04:40:53;9.73;;;4.73;;
6566;SDS011;3317;43.994;22.878;2023-06-10T04:43:20;6.70;;;4.97;;
6566;SDS011;3317;43.994;22.878;2023-06-10T04:45:47;10.90;;;4.80;;
6566;SDS011;3317;43.994;22.878;2023-06-10T04:48:16;15.37;;;5.03;;
6566;SDS011;3317;43.994;22.878;2023-06-10T04:50:44;11.10;;;4.47;;
6566;SDS011;3317;43.994;22.878;2023-06-10T04:53:12;9.20;;;5.10;;
6566;SDS011;3317;43.994;22.878;2023-06-10T04:55:40;9.27;;;4.27;;
6566;SDS011;3317;43.994;22.878;2023-06-10T04:58:08;9.20;;;4.90;;
6566;SDS011;3317;43.994;22.878;2023-06-10T05:00:35;7.63;;;4.60;;
6566;SDS011;3317;43.994;22.878;2023-06-10T05:03:02;9.53;;;5.30;;
6566;SDS011;3317;43.994;22.878;2023-06-10T05:05:31;7.67;;;4.57;;
6566;SDS011;3317;43.994;22.878;2023-06-10T05:07:58;6.23;;;3.83;;
6566;SDS011;3317;43.994;22.878;2023-06-10T05:10:25;10.93;;;4.47;;
6566;SDS011;3317;43.994;22.878;2023-06-10T05:12:52;8.23;;;4.50;;
6566;SDS011;3317;43.994;22.878;2023-06-10T05:15:19;6.40;;;3.80;;
6566;SDS011;3317;43.994;22.878;2023-06-10T05:17:47;8.03;;;4.10;;
6566;SDS011;3317;43.994;22.878;2023-06-10T05:20:15;8.83;;;5.17;;
6566;SDS011;3317;43.994;22.878;2023-06-10T05:22:43;7.23;;;4.57;;
6566;SDS011;3317;43.994;22.878;2023-06-10T05:25:11;9.30;;;5.80;;
6566;SDS011;3317;43.994;22.878;2023-06-10T05:27:38;6.17;;;4.50;;
6566;SDS011;3317;43.994;22.878;2023-06-10T05:30:07;8.17;;;5.10;;
6566;SDS011;3317;43.994;22.878;2023-06-10T05:32:36;9.60;;;5.80;;
6566;SDS011;3317;43.994;22.878;2023-06-10T05:35:03;8.83;;;5.73;;
6566;SDS011;3317;43.994;22.878;2023-06-10T05:37:33;9.77;;;6.00;;
6566;SDS011;3317;43.994;22.878;2023-06-10T05:40:01;5.70;;;4.80;;
6566;SDS011;3317;43.994;22.878;2023-06-10T05:42:29;35.30;;;6.70;;
6566;SDS011;3317;43.994;22.878;2023-06-10T05:44:56;18.00;;;5.57;;
6566;SDS011;3317;43.994;22.878;2023-06-10T05:47:23;9.30;;;4.90;;
6566;SDS011;3317;43.994;22.878;2023-06-10T05:49:50;9.13;;;5.20;;
6566;SDS011;3317;43.994;22.878;2023-06-10T05:52:17;9.10;;;5.17;;
6566;SDS011;3317;43.994;22.878;2023-06-10T05:54:44;8.50;;;4.60;;
6566;SDS011;3317;43.994;22.878;2023-06-10T05:57:14;5.83;;;4.30;;
6566;SDS011;3317;43.994;22.878;2023-06-10T05:59:41;9.90;;;6.00;;
6566;SDS011;3317;43.994;22.878;2023-06-10T06:02:08;16.13;;;4.50;;
6566;SDS011;3317;43.994;22.878;2023-06-10T06:04:35;8.90;;;5.17;;
6566;SDS011;3317;43.994;22.878;2023-06-10T06:07:02;9.33;;;5.23;;
6566;SDS011;3317;43.994;22.878;2023-06-10T06:09:30;10.63;;;4.50;;
6566;SDS011;3317;43.994;22.878;2023-06-10T06:11:57;8.10;;;4.40;;
6566;SDS011;3317;43.994;22.878;2023-06-10T06:14:26;7.57;;;4.17;;
6566;SDS011;3317;43.994;22.878;2023-06-10T06:16:52;6.00;;;4.00;;
6566;SDS011;3317;43.994;22.878;2023-06-10T06:19:19;5.13;;;3.57;;
6566;SDS011;3317;43.994;22.878;2023-06-10T06:21:47;4.80;;;3.23;;
6566;SDS011;3317;43.994;22.878;2023-06-10T06:24:14;8.57;;;3.60;;
6566;SDS011;3317;43.994;22.878;2023-06-10T06:26:41;6.70;;;3.33;;
6566;SDS011;3317;43.994;22.878;2023-06-10T06:29:08;4.80;;;3.50;;
6566;SDS011;3317;43.994;22.878;2023-06-10T06:31:37;11.30;;;4.27;;
6566;SDS011;3317;43.994;22.878;2023-06-10T06:34:04;5.13;;;3.43;;
6566;SDS011;3317;43.994;22.878;2023-06-10T06:36:30;6.80;;;4.20;;
6566;SDS011;3317;43.994;22.878;2023-06-10T06:38:57;6.53;;;3.70;;
6566;SDS011;3317;43.994;22.878;2023-06-10T06:41:25;8.80;;;3.60;;
6566;SDS011;3317;43.994;22.878;2023-06-10T06:43:53;11.03;;;4.00;;
6566;SDS011;3317;43.994;22.878;2023-06-10T06:46:20;7.53;;;3.50;;
6566;SDS011;3317;43.994;22.878;2023-06-10T06:48:49;6.93;;;3.57;;
6566;SDS011;3317;43.994;22.878;2023-06-10T06:51:15;7.67;;;4.10;;
6566;SDS011;3317;43.994;22.878;2023-06-10T06:53:42;6.17;;;3.70;;
6566;SDS011;3317;43.994;22.878;2023-06-10T06:56:10;4.80;;;3.50;;
6566;SDS011;3317;43.994;22.878;2023-06-10T06:58:37;3.83;;;3.43;;
6566;SDS011;3317;43.994;22.878;2023-06-10T07:01:04;6.50;;;3.73;;
6566;SDS011;3317;43.994;22.878;2023-06-10T07:03:31;5.43;;;3.57;;
6566;SDS011;3317;43.994;22.878;2023-06-10T07:06:00;6.63;;;3.77;;
6566;SDS011;3317;43.994;22.878;2023-06-10T07:08:27;7.63;;;5.10;;
6566;SDS011;3317;43.994;22.878;2023-06-10T07:10:54;6.20;;;3.87;;
6566;SDS011;3317;43.994;22.878;2023-06-10T07:13:21;6.37;;;3.50;;
6566;SDS011;3317;43.994;22.878;2023-06-10T07:15:47;3.30;;;3.00;;
6566;SDS011;3317;43.994;22.878;2023-06-10T07:18:15;5.53;;;3.97;;
6566;SDS011;3317;43.994;22.878;2023-06-10T07:20:42;7.83;;;4.20;;
6566;SDS011;3317;43.994;22.878;2023-06-10T07:23:11;4.10;;;3.60;;
6566;SDS011;3317;43.994;22.878;2023-06-10T07:25:37;4.30;;;3.50;;
6566;SDS011;3317;43.994;22.878;2023-06-10T07:28:04;6.50;;;3.43;;
6566;SDS011;3317;43.994;22.878;2023-06-10T07:30:31;5.73;;;3.20;;
6566;SDS011;3317;43.994;22.878;2023-06-10T07:32:58;6.30;;;3.30;;
6566;SDS011;3317;43.994;22.878;2023-06-10T07:35:25;4.77;;;3.17;;
6566;SDS011;3317;43.994;22.878;2023-06-10T07:37:52;3.57;;;3.27;;
6566;SDS011;3317;43.994;22.878;2023-06-10T07:40:21;6.17;;;3.20;;
6566;SDS011;3317;43.994;22.878;2023-06-10T07:42:47;6.40;;;3.70;;
6566;SDS011;3317;43.994;22.878;2023-06-10T07:45:14;10.87;;;3.90;;
6566;SDS011;3317;43.994;22.878;2023-06-10T07:47:42;5.10;;;3.47;;
6566;SDS011;3317;43.994;22.878;2023-06-10T07:50:10;4.43;;;3.53;;
6566;SDS011;3317;43.994;22.878;2023-06-10T07:52:37;4.10;;;3.37;;
6566;SDS011;3317;43.994;22.878;2023-06-10T07:55:04;4.03;;;2.90;;
6566;SDS011;3317;43.994;22.878;2023-06-10T07:57:33;5.60;;;3.20;;
6566;SDS011;3317;43.994;22.878;2023-06-10T08:00:02;4.07;;;3.07;;
6566;SDS011;3317;43.994;22.878;2023-06-10T08:02:29;3.90;;;3.00;;
6566;SDS011;3317;43.994;22.878;2023-06-10T08:04:56;6.10;;;3.33;;
6566;SDS011;3317;43.994;22.878;2023-06-10T08:07:24;9.13;;;3.13;;
6566;SDS011;3317;43.994;22.878;2023-06-10T08:09:51;3.87;;;3.10;;
6566;SDS011;3317;43.994;22.878;2023-06-10T08:12:18;4.20;;;3.23;;
6566;SDS011;3317;43.994;22.878;2023-06-10T08:14:46;4.17;;;3.60;;
6566;SDS011;3317;43.994;22.878;2023-06-10T08:17:13;3.60;;;3.27;;
6566;SDS011;3317;43.994;22.878;2023-06-10T08:19:40;4.70;;;3.07;;
6566;SDS011;3317;43.994;22.878;2023-06-10T08:22:07;4.73;;;3.13;;
6566;SDS011;3317;43.994;22.878;2023-06-10T08:24:35;6.50;;;3.37;;
6566;SDS011;3317;43.994;22.878;2023-06-10T08:27:02;4.47;;;3.40;;
6566;SDS011;3317;43.994;22.878;2023-06-10T08:29:29;3.30;;;3.00;;
6566;SDS011;3317;43.994;22.878;2023-06-10T08:31:58;4.47;;;3.40;;
6566;SDS011;3317;43.994;22.878;2023-06-10T08:34:25;4.70;;;3.30;;
6566;SDS011;3317;43.994;22.878;2023-06-10T08:36:52;5.00;;;3.40;;
6566;SDS011;3317;43.994;22.878;2023-06-10T08:39:20;6.30;;;3.17;;
6566;SDS011;3317;43.994;22.878;2023-06-10T08:41:51;9.97;;;7.10;;
6566;SDS011;3317;43.994;22.878;2023-06-10T08:44:27;6.03;;;3.20;;
6566;SDS011;3317;43.994;22.878;2023-06-10T08:46:55;3.77;;;3.17;;
6566;SDS011;3317;43.994;22.878;2023-06-10T08:49:26;4.03;;;3.40;;
6566;SDS011;3317;43.994;22.878;2023-06-10T08:51:58;5.30;;;3.70;;
6566;SDS011;3317;43.994;22.878;2023-06-10T08:54:28;5.00;;;3.90;;
6566;SDS011;3317;43.994;22.878;2023-06-10T08:56:59;5.80;;;3.47;;
6566;SDS011;3317;43.994;22.878;2023-06-10T08:59:28;4.53;;;3.67;;
6566;SDS011;3317;43.994;22.878;2023-06-10T09:01:55;4.20;;;3.80;;
6566;SDS011;3317;43.994;22.878;2023-06-10T09:04:23;25.50;;;12.50;;
6566;SDS011;3317;43.994;22.878;2023-06-10T09:06:52;5.73;;;3.50;;
6566;SDS011;3317;43.994;22.878;2023-06-10T09:09:20;3.90;;;3.20;;
6566;SDS011;3317;43.994;22.878;2023-06-10T09:11:49;3.40;;;3.10;;
6566;SDS011;3317;43.994;22.878;2023-06-10T09:14:16;5.50;;;4.03;;
6566;SDS011;3317;43.994;22.878;2023-06-10T09:16:43;4.40;;;3.43;;
6566;SDS011;3317;43.994;22.878;2023-06-10T09:19:11;5.10;;;3.20;;
6566;SDS011;3317;43.994;22.878;2023-06-10T09:21:39;9.57;;;3.37;;
6566;SDS011;3317;43.994;22.878;2023-06-10T09:24:07;4.00;;;2.80;;
6566;SDS011;3317;43.994;22.878;2023-06-10T09:26:35;4.63;;;3.87;;
6566;SDS011;3317;43.994;22.878;2023-06-10T09:29:05;5.33;;;3.37;;
6566;SDS011;3317;43.994;22.878;2023-06-10T09:31:34;4.93;;;3.43;;
6566;SDS011;3317;43.994;22.878;2023-06-10T09:34:06;3.57;;;3.27;;
6566;SDS011;3317;43.994;22.878;2023-06-10T09:36:33;9.10;;;3.60;;
6566;SDS011;3317;43.994;22.878;2023-06-10T09:39:01;4.27;;;3.10;;
6566;SDS011;3317;43.994;22.878;2023-06-10T09:41:34;5.10;;;3.17;;
6566;SDS011;3317;43.994;22.878;2023-06-10T09:44:02;3.50;;;3.20;;
6566;SDS011;3317;43.994;22.878;2023-06-10T09:46:37;6.30;;;4.10;;
6566;SDS011;3317;43.994;22.878;2023-06-10T09:49:05;3.67;;;2.70;;
6566;SDS011;3317;43.994;22.878;2023-06-10T09:51:32;3.00;;;2.70;;
6566;SDS011;3317;43.994;22.878;2023-06-10T09:53:59;4.63;;;3.50;;
6566;SDS011;3317;43.994;22.878;2023-06-10T09:56:36;9.23;;;3.10;;
6566;SDS011;3317;43.994;22.878;2023-06-10T09:59:07;4.77;;;3.13;;
6566;SDS011;3317;43.994;22.878;2023-06-10T10:01:34;6.20;;;3.33;;
6566;SDS011;3317;43.994;22.878;2023-06-10T10:04:01;5.23;;;3.50;;
6566;SDS011;3317;43.994;22.878;2023-06-10T10:06:30;5.37;;;3.60;;
6566;SDS011;3317;43.994;22.878;2023-06-10T10:08:58;3.40;;;3.10;;
6566;SDS011;3317;43.994;22.878;2023-06-10T10:11:25;5.10;;;4.00;;
6566;SDS011;3317;43.994;22.878;2023-06-10T10:13:54;4.90;;;3.70;;
6566;SDS011;3317;43.994;22.878;2023-06-10T10:16:21;3.80;;;3.20;;
6566;SDS011;3317;43.994;22.878;2023-06-10T10:18:56;4.17;;;3.63;;
6566;SDS011;3317;43.994;22.878;2023-06-10T10:21:29;4.57;;;3.70;;
6566;SDS011;3317;43.994;22.878;2023-06-10T10:24:03;8.33;;;3.70;;
6566;SDS011;3317;43.994;22.878;2023-06-10T10:26:34;7.70;;;4.00;;
6566;SDS011;3317;43.994;22.878;2023-06-10T10:29:07;4.77;;;3.20;;
6566;SDS011;3317;43.994;22.878;2023-06-10T10:31:41;3.63;;;3.10;;
6566;SDS011;3317;43.994;22.878;2023-06-10T10:34:09;5.80;;;3.20;;
6566;SDS011;3317;43.994;22.878;2023-06-10T10:36:40;4.30;;;3.70;;
6566;SDS011;3317;43.994;22.878;2023-06-10T10:39:08;8.20;;;3.87;;
6566;SDS011;3317;43.994;22.878;2023-06-10T10:41:37;5.87;;;3.33;;
6566;SDS011;3317;43.994;22.878;2023-06-10T10:44:06;6.57;;;3.63;;
6566;SDS011;3317;43.994;22.878;2023-06-10T10:46:41;6.73;;;3.80;;
6566;SDS011;3317;43.994;22.878;2023-06-10T10:49:10;4.33;;;3.33;;
6566;SDS011;3317;43.994;22.878;2023-06-10T10:51:53;3.63;;;3.17;;
6566;SDS011;3317;43.994;22.878;2023-06-10T10:54:27;5.07;;;2.97;;
6566;SDS011;3317;43.994;22.878;2023-06-10T10:59:58;4.40;;;3.20;;
6566;SDS011;3317;43.994;22.878;2023-06-10T11:02:33;4.20;;;3.33;;
6566;SDS011;3317;43.994;22.878;2023-06-10T11:05:08;7.50;;;3.97;;
6566;SDS011;3317;43.994;22.878;2023-06-10T11:07:36;7.13;;;3.40;;
6566;SDS011;3317;43.994;22.878;2023-06-10T11:10:05;10.73;;;3.63;;
6566;SDS011;3317;43.994;22.878;2023-06-10T11:12:41;5.00;;;3.40;;
6566;SDS011;3317;43.994;22.878;2023-06-10T11:15:19;4.63;;;3.30;;
6566;SDS011;3317;43.994;22.878;2023-06-10T11:20:52;5.27;;;3.37;;
6566;SDS011;3317;43.994;22.878;2023-06-10T11:23:33;5.10;;;3.13;;
6566;SDS011;3317;43.994;22.878;2023-06-10T11:26:11;4.53;;;3.20;;
6566;SDS011;3317;43.994;22.878;2023-06-10T11:28:41;5.73;;;3.67;;
6566;SDS011;3317;43.994;22.878;2023-06-10T11:31:29;3.20;;;2.90;;
6566;SDS011;3317;43.994;22.878;2023-06-10T11:33:57;3.60;;;3.20;;
6566;SDS011;3317;43.994;22.878;2023-06-10T11:36:26;4.10;;;3.03;;
6566;SDS011;3317;43.994;22.878;2023-06-10T11:38:55;5.17;;;3.03;;
6566;SDS011;3317;43.994;22.878;2023-06-10T11:41:23;6.47;;;3.53;;
6566;SDS011;3317;43.994;22.878;2023-06-10T11:43:52;4.57;;;3.40;;
6566;SDS011;3317;43.994;22.878;2023-06-10T11:46:21;4.37;;;2.90;;
6566;SDS011;3317;43.994;22.878;2023-06-10T11:48:51;3.50;;;3.10;;
6566;SDS011;3317;43.994;22.878;2023-06-10T11:51:18;6.53;;;3.40;;
6566;SDS011;3317;43.994;22.878;2023-06-10T11:53:46;6.23;;;3.40;;
6566;SDS011;3317;43.994;22.878;2023-06-10T11:56:14;6.90;;;3.10;;
6566;SDS011;3317;43.994;22.878;2023-06-10T11:58:51;4.27;;;3.17;;
6566;SDS011;3317;43.994;22.878;2023-06-10T12:01:19;7.37;;;3.10;;
6566;SDS011;3317;43.994;22.878;2023-06-10T12:03:48;3.50;;;3.20;;
6566;SDS011;3317;43.994;22.878;2023-06-10T12:06:24;3.83;;;3.47;;
6566;SDS011;3317;43.994;22.878;2023-06-10T12:08:51;7.87;;;3.63;;
6566;SDS011;3317;43.994;22.878;2023-06-10T12:11:18;3.57;;;3.27;;
6566;SDS011;3317;43.994;22.878;2023-06-10T12:13:45;5.30;;;3.30;;
6566;SDS011;3317;43.994;22.878;2023-06-10T12:16:14;3.63;;;3.33;;
6566;SDS011;3317;43.994;22.878;2023-06-10T12:18:42;3.70;;;3.30;;
6566;SDS011;3317;43.994;22.878;2023-06-10T12:21:18;4.73;;;3.07;;
6566;SDS011;3317;43.994;22.878;2023-06-10T12:23:59;4.70;;;3.47;;
6566;SDS011;3317;43.994;22.878;2023-06-10T12:26:33;3.50;;;3.17;;
6566;SDS011;3317;43.994;22.878;2023-06-10T12:31:54;3.87;;;3.43;;
6566;SDS011;3317;43.994;22.878;2023-06-10T12:37:10;4.30;;;3.40;;
6566;SDS011;3317;43.994;22.878;2023-06-10T12:39:39;4.10;;;3.40;;
6566;SDS011;3317;43.994;22.878;2023-06-10T12:42:08;3.43;;;3.10;;
6566;SDS011;3317;43.994;22.878;2023-06-10T12:44:38;4.27;;;3.40;;
6566;SDS011;3317;43.994;22.878;2023-06-10T12:47:09;3.50;;;3.20;;
6566;SDS011;3317;43.994;22.878;2023-06-10T12:49:37;4.10;;;3.30;;
6566;SDS011;3317;43.994;22.878;2023-06-10T12:52:05;5.83;;;3.13;;
6566;SDS011;3317;43.994;22.878;2023-06-10T12:54:34;3.70;;;3.33;;
6566;SDS011;3317;43.994;22.878;2023-06-10T12:57:01;4.70;;;3.40;;
6566;SDS011;3317;43.994;22.878;2023-06-10T12:59:28;4.20;;;2.97;;
6566;SDS011;3317;43.994;22.878;2023-06-10T13:01:56;3.83;;;3.27;;
6566;SDS011;3317;43.994;22.878;2023-06-10T13:04:23;4.00;;;3.17;;
6566;SDS011;3317;43.994;22.878;2023-06-10T13:06:50;3.50;;;3.10;;
6566;SDS011;3317;43.994;22.878;2023-06-10T13:09:18;5.07;;;3.13;;
6566;SDS011;3317;43.994;22.878;2023-06-10T13:11:45;3.33;;;3.03;;
6566;SDS011;3317;43.994;22.878;2023-06-10T13:14:12;3.20;;;3.00;;
6566;SDS011;3317;43.994;22.878;2023-06-10T13:16:39;4.03;;;3.03;;
6566;SDS011;3317;43.994;22.878;2023-06-10T13:19:07;4.10;;;3.70;;
6566;SDS011;3317;43.994;22.878;2023-06-10T13:21:34;5.07;;;3.87;;
6566;SDS011;3317;43.994;22.878;2023-06-10T13:24:02;7.90;;;3.67;;
6566;SDS011;3317;43.994;22.878;2023-06-10T13:26:30;4.10;;;3.57;;
6566;SDS011;3317;43.994;22.878;2023-06-10T13:28:57;4.30;;;3.33;;
6566;SDS011;3317;43.994;22.878;2023-06-10T13:31:24;4.70;;;2.93;;
6566;SDS011;3317;43.994;22.878;2023-06-10T13:33:51;4.50;;;3.40;;
6566;SDS011;3317;43.994;22.878;2023-06-10T13:36:18;3.03;;;2.73;;
6566;SDS011;3317;43.994;22.878;2023-06-10T13:38:45;4.57;;;3.57;;
6566;SDS011;3317;43.994;22.878;2023-06-10T13:41:12;4.70;;;3.70;;
6566;SDS011;3317;43.994;22.878;2023-06-10T13:43:41;4.80;;;3.80;;
6566;SDS011;3317;43.994;22.878;2023-06-10T13:46:08;3.93;;;3.53;;
6566;SDS011;3317;43.994;22.878;2023-06-10T13:48:35;4.80;;;3.80;;
6566;SDS011;3317;43.994;22.878;2023-06-10T13:51:02;4.93;;;3.40;;
6566;SDS011;3317;43.994;22.878;2023-06-10T13:53:29;3.97;;;3.57;;
6566;SDS011;3317;43.994;22.878;2023-06-10T13:55:56;4.83;;;3.70;;
6566;SDS011;3317;43.994;22.878;2023-06-10T13:58:23;3.47;;;3.17;;
6566;SDS011;3317;43.994;22.878;2023-06-10T14:00:51;5.00;;;3.53;;
6566;SDS011;3317;43.994;22.878;2023-06-10T14:03:18;7.23;;;3.60;;
6566;SDS011;3317;43.994;22.878;2023-06-10T14:05:45;4.60;;;3.30;;
6566;SDS011;3317;43.994;22.878;2023-06-10T14:08:12;5.27;;;3.97;;
6566;SDS011;3317;43.994;22.878;2023-06-10T14:10:39;6.73;;;3.47;;
6566;SDS011;3317;43.994;22.878;2023-06-10T14:13:06;5.40;;;3.70;;
6566;SDS011;3317;43.994;22.878;2023-06-10T14:15:33;8.27;;;3.70;;
6566;SDS011;3317;43.994;22.878;2023-06-10T14:18:02;5.10;;;4.00;;
6566;SDS011;3317;43.994;22.878;2023-06-10T14:20:29;4.37;;;3.97;;
6566;SDS011;3317;43.994;22.878;2023-06-10T14:22:56;8.43;;;4.20;;
6566;SDS011;3317;43.994;22.878;2023-06-10T14:25:24;4.30;;;3.90;;
6566;SDS011;3317;43.994;22.878;2023-06-10T14:27:51;5.07;;;4.00;;
6566;SDS011;3317;43.994;22.878;2023-06-10T14:30:18;6.47;;;3.63;;
6566;SDS011;3317;43.994;22.878;2023-06-10T14:32:45;6.63;;;3.83;;
6566;SDS011;3317;43.994;22.878;2023-06-10T14:35:14;7.50;;;4.10;;
6566;SDS011;3317;43.994;22.878;2023-06-10T14:37:41;9.43;;;4.20;;
6566;SDS011;3317;43.994;22.878;2023-06-10T14:40:08;7.17;;;4.83;;
6566;SDS011;3317;43.994;22.878;2023-06-10T14:42:36;10.23;;;4.57;;
6566;SDS011;3317;43.994;22.878;2023-06-10T14:45:03;12.00;;;5.07;;
6566;SDS011;3317;43.994;22.878;2023-06-10T14:47:32;6.93;;;5.13;;
6566;SDS011;3317;43.994;22.878;2023-06-10T14:49:59;6.93;;;5.50;;
6566;SDS011;3317;43.994;22.878;2023-06-10T14:52:27;7.00;;;5.33;;
6566;SDS011;3317;43.994;22.878;2023-06-10T14:54:54;9.77;;;5.53;;
6566;SDS011;3317;43.994;22.878;2023-06-10T14:57:21;5.50;;;4.90;;
6566;SDS011;3317;43.994;22.878;2023-06-10T14:59:47;16.63;;;5.83;;
6566;SDS011;3317;43.994;22.878;2023-06-10T15:02:14;7.17;;;4.90;;
6566;SDS011;3317;43.994;22.878;2023-06-10T15:04:41;9.97;;;5.00;;
6566;SDS011;3317;43.994;22.878;2023-06-10T15:07:08;7.73;;;4.97;;
6566;SDS011;3317;43.994;22.878;2023-06-10T15:09:37;12.93;;;5.27;;
6566;SDS011;3317;43.994;22.878;2023-06-10T15:12:04;6.83;;;5.23;;
6566;SDS011;3317;43.994;22.878;2023-06-10T15:14:31;7.33;;;4.80;;
6566;SDS011;3317;43.994;22.878;2023-06-10T15:16:58;5.37;;;4.37;;
6566;SDS011;3317;43.994;22.878;2023-06-10T15:19:25;6.10;;;4.70;;